sensor_id;sensor_type;location;lat;lon;timestamp;temperature;humidity
65404;DHT22;52014;52.088;5.096;2023-05-27T00:00:11;12.30;99.90
65404;DHT22;52014;52.088;5.096;2023-05-27T00:02:38;12.20;99.90
65404;DHT22;52014;52.088;5.096;2023-05-27T00:05:03;12.20;99.90
65404;DHT22;52014;52.088;5.096;2023-05-27T00:07:30;12.20;99.90
65404;DHT22;52014;52.088;5.096;2023-05-27T00:09:56;12.10;99.90
65404;DHT22;52014;52.088;5.096;2023-05-27T00:12:22;12.10;99.90
65404;DHT22;52014;52.088;5.096;2023-05-27T00:14:47;12.10;99.90
65404;DHT22;52014;52.088;5.096;2023-05-27T00:17:12;12.10;99.90
65404;DHT22;52014;52.088;5.096;2023-05-27T00:19:42;12.10;99.90
65404;DHT22;52014;52.088;5.096;2023-05-27T00:22:10;12.00;99.90
65404;DHT22;52014;52.088;5.096;2023-05-27T00:24:36;12.00;99.90
65404;DHT22;52014;52.088;5.096;2023-05-27T00:27:07;12.00;99.90
65404;DHT22;52014;52.088;5.096;2023-05-27T00:29:32;12.00;99.90
65404;DHT22;52014;52.088;5.096;2023-05-27T00:31:59;12.00;99.90
65404;DHT22;52014;52.088;5.096;2023-05-27T00:34:25;11.90;99.90
65404;DHT22;52014;52.088;5.096;2023-05-27T00:36:50;11.90;99.90
65404;DHT22;52014;52.088;5.096;2023-05-27T00:39:16;11.90;99.90
65404;DHT22;52014;52.088;5.096;2023-05-27T00:41:42;11.90;99.90
65404;DHT22;52014;52.088;5.096;2023-05-27T00:44:08;11.80;99.90
65404;DHT22;52014;52.088;5.096;2023-05-27T00:46:33;11.80;99.90
65404;DHT22;52014;52.088;5.096;2023-05-27T00:48:59;11.80;99.90
65404;DHT22;52014;52.088;5.096;2023-05-27T00:51:24;11.90;99.90
65404;DHT22;52014;52.088;5.096;2023-05-27T00:53:50;11.80;99.90
65404;DHT22;52014;52.088;5.096;2023-05-27T00:56:16;11.80;99.90
65404;DHT22;52014;52.088;5.096;2023-05-27T00:58:41;11.80;99.90
65404;DHT22;52014;52.088;5.096;2023-05-27T01:01:07;11.80;99.90
65404;DHT22;52014;52.088;5.096;2023-05-27T01:03:33;11.80;99.90
65404;DHT22;52014;52.088;5.096;2023-05-27T01:06:03;11.80;99.90
65404;DHT22;52014;52.088;5.096;2023-05-27T01:11:21;11.80;99.90
65404;DHT22;52014;52.088;5.096;2023-05-27T01:13:49;11.70;99.90
65404;DHT22;52014;52.088;5.096;2023-05-27T01:16:16;11.70;99.90
65404;DHT22;52014;52.088;5.096;2023-05-27T01:18:44;11.70;99.90
65404;DHT22;52014;52.088;5.096;2023-05-27T01:21:10;11.70;99.90
65404;DHT22;52014;52.088;5.096;2023-05-27T01:23:36;11.70;99.90
65404;DHT22;52014;52.088;5.096;2023-05-27T01:26:04;11.60;99.90
65404;DHT22;52014;52.088;5.096;2023-05-27T01:28:30;11.60;99.90
65404;DHT22;52014;52.088;5.096;2023-05-27T01:30:57;11.60;99.90
65404;DHT22;52014;52.088;5.096;2023-05-27T01:33:25;11.60;99.90
65404;DHT22;52014;52.088;5.096;2023-05-27T01:35:51;11.60;99.90
65404;DHT22;52014;52.088;5.096;2023-05-27T01:38:18;11.60;99.90
65404;DHT22;52014;52.088;5.096;2023-05-27T01:40:45;11.50;99.90
65404;DHT22;52014;52.088;5.096;2023-05-27T01:43:11;11.50;99.90
65404;DHT22;52014;52.088;5.096;2023-05-27T01:45:37;11.50;99.90
65404;DHT22;52014;52.088;5.096;2023-05-27T01:48:02;11.50;99.90
65404;DHT22;52014;52.088;5.096;2023-05-27T01:50:28;11.40;99.90
65404;DHT22;52014;52.088;5.096;2023-05-27T01:52:56;11.40;99.90
65404;DHT22;52014;52.088;5.096;2023-05-27T01:55:21;11.40;99.90
65404;DHT22;52014;52.088;5.096;2023-05-27T01:57:47;11.40;99.90
65404;DHT22;52014;52.088;5.096;2023-05-27T02:00:12;11.40;99.90
65404;DHT22;52014;52.088;5.096;2023-05-27T02:02:38;11.40;99.90
65404;DHT22;52014;52.088;5.096;2023-05-27T02:05:04;11.40;99.90
65404;DHT22;52014;52.088;5.096;2023-05-27T02:07:29;11.30;99.90
65404;DHT22;52014;52.088;5.096;2023-05-27T02:09:54;11.30;99.90
65404;DHT22;52014;52.088;5.096;2023-05-27T02:12:20;11.30;99.90
65404;DHT22;52014;52.088;5.096;2023-05-27T02:14:46;11.20;99.90
65404;DHT22;52014;52.088;5.096;2023-05-27T02:17:11;11.30;99.90
65404;DHT22;52014;52.088;5.096;2023-05-27T02:19:37;11.30;99.90
65404;DHT22;52014;52.088;5.096;2023-05-27T02:22:02;11.20;99.90
65404;DHT22;52014;52.088;5.096;2023-05-27T02:24:28;11.20;99.90
65404;DHT22;52014;52.088;5.096;2023-05-27T02:26:53;11.20;99.90
65404;DHT22;52014;52.088;5.096;2023-05-27T02:29:18;11.20;99.90
65404;DHT22;52014;52.088;5.096;2023-05-27T02:31:44;11.10;99.90
65404;DHT22;52014;52.088;5.096;2023-05-27T02:34:09;11.10;99.90
65404;DHT22;52014;52.088;5.096;2023-05-27T02:36:35;11.10;99.90
65404;DHT22;52014;52.088;5.096;2023-05-27T02:39:01;11.10;99.90
65404;DHT22;52014;52.088;5.096;2023-05-27T02:41:27;11.10;99.90
65404;DHT22;52014;52.088;5.096;2023-05-27T02:43:52;11.10;99.90
65404;DHT22;52014;52.088;5.096;2023-05-27T02:46:17;11.10;99.90
65404;DHT22;52014;52.088;5.096;2023-05-27T02:48:43;11.10;99.90
65404;DHT22;52014;52.088;5.096;2023-05-27T02:51:08;11.10;99.90
65404;DHT22;52014;52.088;5.096;2023-05-27T02:53:34;11.10;99.90
65404;DHT22;52014;52.088;5.096;2023-05-27T02:55:59;11.10;99.90
65404;DHT22;52014;52.088;5.096;2023-05-27T02:58:25;11.10;99.90
65404;DHT22;52014;52.088;5.096;2023-05-27T03:00:50;11.10;99.90
65404;DHT22;52014;52.088;5.096;2023-05-27T03:03:16;11.00;99.90
65404;DHT22;52014;52.088;5.096;2023-05-27T03:05:41;11.00;99.90
65404;DHT22;52014;52.088;5.096;2023-05-27T03:08:06;11.00;99.90
65404;DHT22;52014;52.088;5.096;2023-05-27T03:10:32;11.00;99.90
65404;DHT22;52014;52.088;5.096;2023-05-27T03:12:58;11.00;99.90
65404;DHT22;52014;52.088;5.096;2023-05-27T03:15:23;11.00;99.90
65404;DHT22;52014;52.088;5.096;2023-05-27T03:17:49;11.00;99.90
65404;DHT22;52014;52.088;5.096;2023-05-27T03:20:15;11.00;99.90
65404;DHT22;52014;52.088;5.096;2023-05-27T03:22:42;11.00;99.90
65404;DHT22;52014;52.088;5.096;2023-05-27T03:25:07;11.00;99.90
65404;DHT22;52014;52.088;5.096;2023-05-27T03:27:33;10.90;99.90
65404;DHT22;52014;52.088;5.096;2023-05-27T03:29:58;10.90;99.90
65404;DHT22;52014;52.088;5.096;2023-05-27T03:32:24;10.90;99.90
65404;DHT22;52014;52.088;5.096;2023-05-27T03:34:49;10.90;99.90
65404;DHT22;52014;52.088;5.096;2023-05-27T03:37:15;10.90;99.90
65404;DHT22;52014;52.088;5.096;2023-05-27T03:39:40;10.80;99.90
65404;DHT22;52014;52.088;5.096;2023-05-27T03:42:06;10.90;99.90
65404;DHT22;52014;52.088;5.096;2023-05-27T03:44:31;10.90;99.90
65404;DHT22;52014;52.088;5.096;2023-05-27T03:46:57;10.90;99.90
65404;DHT22;52014;52.088;5.096;2023-05-27T03:49:22;10.90;99.90
65404;DHT22;52014;52.088;5.096;2023-05-27T03:51:48;10.80;99.90
65404;DHT22;52014;52.088;5.096;2023-05-27T03:54:14;10.80;99.90
65404;DHT22;52014;52.088;5.096;2023-05-27T03:56:39;10.80;99.90
65404;DHT22;52014;52.088;5.096;2023-05-27T03:59:05;10.80;99.90
65404;DHT22;52014;52.088;5.096;2023-05-27T04:01:31;10.90;99.90
65404;DHT22;52014;52.088;5.096;2023-05-27T04:03:57;10.90;99.90
65404;DHT22;52014;52.088;5.096;2023-05-27T04:06:22;10.80;99.90
65404;DHT22;52014;52.088;5.096;2023-05-27T04:08:48;10.90;99.90
65404;DHT22;52014;52.088;5.096;2023-05-27T04:11:13;10.90;99.90
65404;DHT22;52014;52.088;5.096;2023-05-27T04:13:39;10.90;99.90
65404;DHT22;52014;52.088;5.096;2023-05-27T04:16:05;10.80;99.90
65404;DHT22;52014;52.088;5.096;2023-05-27T04:18:30;10.80;99.90
65404;DHT22;52014;52.088;5.096;2023-05-27T04:20:56;10.80;99.90
65404;DHT22;52014;52.088;5.096;2023-05-27T04:23:23;10.80;99.90
65404;DHT22;52014;52.088;5.096;2023-05-27T04:25:49;10.80;99.90
65404;DHT22;52014;52.088;5.096;2023-05-27T04:28:15;10.80;99.90
65404;DHT22;52014;52.088;5.096;2023-05-27T04:30:40;10.90;99.90
65404;DHT22;52014;52.088;5.096;2023-05-27T04:33:06;10.90;99.90
65404;DHT22;52014;52.088;5.096;2023-05-27T04:35:33;11.00;99.90
65404;DHT22;52014;52.088;5.096;2023-05-27T04:37:59;11.00;99.90
65404;DHT22;52014;52.088;5.096;2023-05-27T04:40:26;11.10;99.90
65404;DHT22;52014;52.088;5.096;2023-05-27T04:42:52;11.00;99.90
65404;DHT22;52014;52.088;5.096;2023-05-27T04:45:17;11.10;99.90
65404;DHT22;52014;52.088;5.096;2023-05-27T04:47:43;11.10;99.90
65404;DHT22;52014;52.088;5.096;2023-05-27T04:50:09;11.20;99.90
65404;DHT22;52014;52.088;5.096;2023-05-27T04:52:36;11.20;99.90
65404;DHT22;52014;52.088;5.096;2023-05-27T04:55:06;11.30;99.90
65404;DHT22;52014;52.088;5.096;2023-05-27T04:57:32;11.50;99.90
65404;DHT22;52014;52.088;5.096;2023-05-27T04:59:58;11.80;99.90
65404;DHT22;52014;52.088;5.096;2023-05-27T05:02:30;12.00;99.90
65404;DHT22;52014;52.088;5.096;2023-05-27T05:05:09;12.10;99.90
65404;DHT22;52014;52.088;5.096;2023-05-27T05:07:35;12.30;99.90
65404;DHT22;52014;52.088;5.096;2023-05-27T05:10:05;12.20;99.90
65404;DHT22;52014;52.088;5.096;2023-05-27T05:12:31;12.20;99.90
65404;DHT22;52014;52.088;5.096;2023-05-27T05:14:57;12.20;99.90
65404;DHT22;52014;52.088;5.096;2023-05-27T05:17:23;12.40;99.90
65404;DHT22;52014;52.088;5.096;2023-05-27T05:19:49;12.50;99.90
65404;DHT22;52014;52.088;5.096;2023-05-27T05:22:15;12.70;99.90
65404;DHT22;52014;52.088;5.096;2023-05-27T05:24:46;12.80;99.90
65404;DHT22;52014;52.088;5.096;2023-05-27T05:27:11;12.90;99.90
65404;DHT22;52014;52.088;5.096;2023-05-27T05:29:37;13.00;99.90
65404;DHT22;52014;52.088;5.096;2023-05-27T05:32:03;13.10;99.90
65404;DHT22;52014;52.088;5.096;2023-05-27T05:34:28;13.20;99.90
65404;DHT22;52014;52.088;5.096;2023-05-27T05:36:54;13.40;99.90
65404;DHT22;52014;52.088;5.096;2023-05-27T05:39:19;13.50;99.90
65404;DHT22;52014;52.088;5.096;2023-05-27T05:41:45;13.50;99.90
65404;DHT22;52014;52.088;5.096;2023-05-27T05:44:11;13.60;99.90
65404;DHT22;52014;52.088;5.096;2023-05-27T05:46:37;13.70;99.90
65404;DHT22;52014;52.088;5.096;2023-05-27T05:49:02;13.80;99.90
65404;DHT22;52014;52.088;5.096;2023-05-27T05:51:27;13.90;99.90
65404;DHT22;52014;52.088;5.096;2023-05-27T05:53:53;13.90;99.90
65404;DHT22;52014;52.088;5.096;2023-05-27T05:56:18;14.00;99.90
65404;DHT22;52014;52.088;5.096;2023-05-27T05:58:44;14.10;99.90
65404;DHT22;52014;52.088;5.096;2023-05-27T06:01:09;14.20;99.90
65404;DHT22;52014;52.088;5.096;2023-05-27T06:03:35;14.20;99.90
65404;DHT22;52014;52.088;5.096;2023-05-27T06:06:01;14.40;99.90
65404;DHT22;52014;52.088;5.096;2023-05-27T06:08:27;14.40;99.90
65404;DHT22;52014;52.088;5.096;2023-05-27T06:10:52;14.40;99.90
65404;DHT22;52014;52.088;5.096;2023-05-27T06:13:18;14.50;99.90
65404;DHT22;52014;52.088;5.096;2023-05-27T06:15:43;14.60;99.90
65404;DHT22;52014;52.088;5.096;2023-05-27T06:18:09;14.70;99.90
65404;DHT22;52014;52.088;5.096;2023-05-27T06:20:34;14.70;99.90
65404;DHT22;52014;52.088;5.096;2023-05-27T06:23:00;14.90;99.90
65404;DHT22;52014;52.088;5.096;2023-05-27T06:25:25;15.00;99.90
65404;DHT22;52014;52.088;5.096;2023-05-27T06:27:51;15.30;99.90
65404;DHT22;52014;52.088;5.096;2023-05-27T06:30:16;15.40;99.90
65404;DHT22;52014;52.088;5.096;2023-05-27T06:32:42;15.40;99.90
65404;DHT22;52014;52.088;5.096;2023-05-27T06:35:07;15.40;99.90
65404;DHT22;52014;52.088;5.096;2023-05-27T06:37:32;15.40;99.90
65404;DHT22;52014;52.088;5.096;2023-05-27T06:39:58;15.60;99.90
65404;DHT22;52014;52.088;5.096;2023-05-27T06:42:23;15.80;99.90
65404;DHT22;52014;52.088;5.096;2023-05-27T06:44:49;15.90;99.90
65404;DHT22;52014;52.088;5.096;2023-05-27T06:47:14;16.10;99.90
65404;DHT22;52014;52.088;5.096;2023-05-27T06:49:40;16.30;99.90
65404;DHT22;52014;52.088;5.096;2023-05-27T06:52:05;16.50;99.90
65404;DHT22;52014;52.088;5.096;2023-05-27T06:54:31;16.70;99.90
65404;DHT22;52014;52.088;5.096;2023-05-27T06:56:57;16.60;99.90
65404;DHT22;52014;52.088;5.096;2023-05-27T06:59:22;16.80;99.90
65404;DHT22;52014;52.088;5.096;2023-05-27T07:01:48;16.60;99.90
65404;DHT22;52014;52.088;5.096;2023-05-27T07:04:13;16.40;99.90
65404;DHT22;52014;52.088;5.096;2023-05-27T07:06:42;16.30;99.90
65404;DHT22;52014;52.088;5.096;2023-05-27T07:09:16;16.20;99.90
65404;DHT22;52014;52.088;5.096;2023-05-27T07:11:42;16.10;99.90
65404;DHT22;52014;52.088;5.096;2023-05-27T07:14:07;16.10;99.90
65404;DHT22;52014;52.088;5.096;2023-05-27T07:16:36;15.90;99.90
65404;DHT22;52014;52.088;5.096;2023-05-27T07:19:01;15.80;99.90
65404;DHT22;52014;52.088;5.096;2023-05-27T07:21:27;15.70;99.90
65404;DHT22;52014;52.088;5.096;2023-05-27T07:23:52;15.70;99.90
65404;DHT22;52014;52.088;5.096;2023-05-27T07:26:18;15.50;99.90
65404;DHT22;52014;52.088;5.096;2023-05-27T07:28:43;15.50;99.90
65404;DHT22;52014;52.088;5.096;2023-05-27T07:31:09;15.30;99.90
65404;DHT22;52014;52.088;5.096;2023-05-27T07:33:35;15.10;99.90
65404;DHT22;52014;52.088;5.096;2023-05-27T07:36:04;15.20;99.90
65404;DHT22;52014;52.088;5.096;2023-05-27T07:38:35;15.60;99.90
65404;DHT22;52014;52.088;5.096;2023-05-27T07:41:01;15.90;99.90
65404;DHT22;52014;52.088;5.096;2023-05-27T07:43:26;16.20;99.90
65404;DHT22;52014;52.088;5.096;2023-05-27T07:45:52;16.40;99.90
65404;DHT22;52014;52.088;5.096;2023-05-27T07:48:17;16.70;99.90
65404;DHT22;52014;52.088;5.096;2023-05-27T07:50:45;16.90;99.90
65404;DHT22;52014;52.088;5.096;2023-05-27T07:53:11;16.90;99.90
65404;DHT22;52014;52.088;5.096;2023-05-27T07:55:37;16.90;99.90
65404;DHT22;52014;52.088;5.096;2023-05-27T07:58:02;17.00;99.90
65404;DHT22;52014;52.088;5.096;2023-05-27T08:00:28;17.20;99.90
65404;DHT22;52014;52.088;5.096;2023-05-27T08:02:53;17.20;99.90
65404;DHT22;52014;52.088;5.096;2023-05-27T08:05:18;17.40;99.90
65404;DHT22;52014;52.088;5.096;2023-05-27T08:07:44;17.60;99.90
65404;DHT22;52014;52.088;5.096;2023-05-27T08:10:10;17.70;99.90
65404;DHT22;52014;52.088;5.096;2023-05-27T08:12:36;17.80;99.90
65404;DHT22;52014;52.088;5.096;2023-05-27T08:15:02;18.00;99.90
65404;DHT22;52014;52.088;5.096;2023-05-27T08:17:28;18.10;99.90
65404;DHT22;52014;52.088;5.096;2023-05-27T08:19:53;18.20;99.90
65404;DHT22;52014;52.088;5.096;2023-05-27T08:22:18;18.20;99.90
65404;DHT22;52014;52.088;5.096;2023-05-27T08:24:44;18.40;99.90
65404;DHT22;52014;52.088;5.096;2023-05-27T08:27:13;18.40;99.90
65404;DHT22;52014;52.088;5.096;2023-05-27T08:29:39;18.50;99.90
65404;DHT22;52014;52.088;5.096;2023-05-27T08:32:05;18.70;99.90
65404;DHT22;52014;52.088;5.096;2023-05-27T08:34:31;18.60;99.90
65404;DHT22;52014;52.088;5.096;2023-05-27T08:36:56;18.80;99.90
65404;DHT22;52014;52.088;5.096;2023-05-27T08:39:22;18.90;99.90
65404;DHT22;52014;52.088;5.096;2023-05-27T08:41:47;18.90;99.90
65404;DHT22;52014;52.088;5.096;2023-05-27T08:44:13;19.00;99.90
65404;DHT22;52014;52.088;5.096;2023-05-27T08:46:39;19.00;99.90
65404;DHT22;52014;52.088;5.096;2023-05-27T08:49:05;19.00;99.90
65404;DHT22;52014;52.088;5.096;2023-05-27T08:51:31;19.00;99.90
65404;DHT22;52014;52.088;5.096;2023-05-27T08:53:57;19.20;99.90
65404;DHT22;52014;52.088;5.096;2023-05-27T08:56:23;19.40;99.90
65404;DHT22;52014;52.088;5.096;2023-05-27T08:58:49;19.40;99.90
65404;DHT22;52014;52.088;5.096;2023-05-27T09:01:16;19.20;99.90
65404;DHT22;52014;52.088;5.096;2023-05-27T09:03:43;19.20;99.90
65404;DHT22;52014;52.088;5.096;2023-05-27T09:06:08;19.40;99.90
65404;DHT22;52014;52.088;5.096;2023-05-27T09:08:34;19.60;99.90
65404;DHT22;52014;52.088;5.096;2023-05-27T09:11:00;19.20;99.90
65404;DHT22;52014;52.088;5.096;2023-05-27T09:13:29;19.40;99.90
65404;DHT22;52014;52.088;5.096;2023-05-27T09:16:01;19.70;99.90
65404;DHT22;52014;52.088;5.096;2023-05-27T09:18:29;19.90;99.90
65404;DHT22;52014;52.088;5.096;2023-05-27T09:20:55;20.10;99.90
65404;DHT22;52014;52.088;5.096;2023-05-27T09:23:21;20.10;99.90
65404;DHT22;52014;52.088;5.096;2023-05-27T09:25:46;20.00;99.90
65404;DHT22;52014;52.088;5.096;2023-05-27T09:28:19;20.10;99.90
65404;DHT22;52014;52.088;5.096;2023-05-27T09:30:45;20.00;99.90
65404;DHT22;52014;52.088;5.096;2023-05-27T09:33:10;20.00;99.90
65404;DHT22;52014;52.088;5.096;2023-05-27T09:35:38;20.00;99.90
65404;DHT22;52014;52.088;5.096;2023-05-27T09:38:07;20.30;99.90
65404;DHT22;52014;52.088;5.096;2023-05-27T09:40:35;20.30;99.90
65404;DHT22;52014;52.088;5.096;2023-05-27T09:43:00;20.30;99.90
65404;DHT22;52014;52.088;5.096;2023-05-27T09:45:26;20.60;99.90
65404;DHT22;52014;52.088;5.096;2023-05-27T09:47:53;20.60;99.90
65404;DHT22;52014;52.088;5.096;2023-05-27T09:50:19;20.80;99.90
65404;DHT22;52014;52.088;5.096;2023-05-27T09:52:46;20.90;99.90
65404;DHT22;52014;52.088;5.096;2023-05-27T09:55:12;20.90;99.90
65404;DHT22;52014;52.088;5.096;2023-05-27T09:57:38;20.80;99.90
65404;DHT22;52014;52.088;5.096;2023-05-27T10:00:05;21.10;99.90
65404;DHT22;52014;52.088;5.096;2023-05-27T10:02:36;20.70;99.90
65404;DHT22;52014;52.088;5.096;2023-05-27T10:05:03;20.80;99.90
65404;DHT22;52014;52.088;5.096;2023-05-27T10:07:30;20.80;99.90
65404;DHT22;52014;52.088;5.096;2023-05-27T10:09:56;21.00;99.90
65404;DHT22;52014;52.088;5.096;2023-05-27T10:12:22;21.10;99.90
65404;DHT22;52014;52.088;5.096;2023-05-27T10:14:48;21.30;99.90
65404;DHT22;52014;52.088;5.096;2023-05-27T10:17:13;21.20;99.90
65404;DHT22;52014;52.088;5.096;2023-05-27T10:19:48;21.20;99.90
65404;DHT22;52014;52.088;5.096;2023-05-27T10:22:14;21.40;99.90
65404;DHT22;52014;52.088;5.096;2023-05-27T10:24:40;21.30;99.90
65404;DHT22;52014;52.088;5.096;2023-05-27T10:27:06;21.30;99.90
65404;DHT22;52014;52.088;5.096;2023-05-27T10:29:35;21.20;99.90
65404;DHT22;52014;52.088;5.096;2023-05-27T10:32:01;21.10;99.90
65404;DHT22;52014;52.088;5.096;2023-05-27T10:34:33;21.10;99.90
65404;DHT22;52014;52.088;5.096;2023-05-27T10:36:59;21.10;99.90
65404;DHT22;52014;52.088;5.096;2023-05-27T10:39:25;21.30;99.90
65404;DHT22;52014;52.088;5.096;2023-05-27T10:41:52;21.70;99.90
65404;DHT22;52014;52.088;5.096;2023-05-27T10:44:27;21.80;99.90
65404;DHT22;52014;52.088;5.096;2023-05-27T10:49:27;21.40;99.90
65404;DHT22;52014;52.088;5.096;2023-05-27T10:52:09;21.30;99.90
65404;DHT22;52014;52.088;5.096;2023-05-27T10:54:39;21.30;99.90
65404;DHT22;52014;52.088;5.096;2023-05-27T10:57:04;21.20;99.90
65404;DHT22;52014;52.088;5.096;2023-05-27T11:02:15;21.30;99.90
65404;DHT22;52014;52.088;5.096;2023-05-27T11:04:41;21.00;99.90
65404;DHT22;52014;52.088;5.096;2023-05-27T11:07:07;21.20;99.90
65404;DHT22;52014;52.088;5.096;2023-05-27T11:09:45;21.10;99.90
65404;DHT22;52014;52.088;5.096;2023-05-27T11:12:21;21.10;99.90
65404;DHT22;52014;52.088;5.096;2023-05-27T11:14:47;21.20;99.90
65404;DHT22;52014;52.088;5.096;2023-05-27T11:17:13;21.30;99.90
65404;DHT22;52014;52.088;5.096;2023-05-27T11:19:43;21.20;99.90
65404;DHT22;52014;52.088;5.096;2023-05-27T11:22:24;21.00;99.90
65404;DHT22;52014;52.088;5.096;2023-05-27T11:25:07;20.80;99.90
65404;DHT22;52014;52.088;5.096;2023-05-27T11:28:02;20.90;99.90
65404;DHT22;52014;52.088;5.096;2023-05-27T11:30:43;20.90;99.90
65404;DHT22;52014;52.088;5.096;2023-05-27T11:33:40;20.90;99.90
65404;DHT22;52014;52.088;5.096;2023-05-27T12:00:39;20.80;99.90
65404;DHT22;52014;52.088;5.096;2023-05-27T12:09:10;20.80;99.90
65404;DHT22;52014;52.088;5.096;2023-05-27T12:11:36;20.70;99.90
65404;DHT22;52014;52.088;5.096;2023-05-27T12:14:02;20.60;99.90
65404;DHT22;52014;52.088;5.096;2023-05-27T12:16:27;20.60;99.90
65404;DHT22;52014;52.088;5.096;2023-05-27T12:18:53;20.70;99.90
65404;DHT22;52014;52.088;5.096;2023-05-27T12:21:18;20.70;99.90
65404;DHT22;52014;52.088;5.096;2023-05-27T12:23:45;20.90;99.90
65404;DHT22;52014;52.088;5.096;2023-05-27T12:26:11;20.90;99.90
65404;DHT22;52014;52.088;5.096;2023-05-27T12:28:37;20.90;99.90
65404;DHT22;52014;52.088;5.096;2023-05-27T12:31:02;21.00;99.90
65404;DHT22;52014;52.088;5.096;2023-05-27T12:33:28;20.80;99.90
65404;DHT22;52014;52.088;5.096;2023-05-27T12:35:53;20.80;99.90
65404;DHT22;52014;52.088;5.096;2023-05-27T12:38:19;20.70;99.90
65404;DHT22;52014;52.088;5.096;2023-05-27T12:40:44;20.70;99.90
65404;DHT22;52014;52.088;5.096;2023-05-27T12:43:10;20.60;99.90
65404;DHT22;52014;52.088;5.096;2023-05-27T12:45:35;20.60;99.90
65404;DHT22;52014;52.088;5.096;2023-05-27T12:48:01;20.60;99.90
65404;DHT22;52014;52.088;5.096;2023-05-27T12:50:27;20.60;99.90
65404;DHT22;52014;52.088;5.096;2023-05-27T12:52:52;20.80;99.90
65404;DHT22;52014;52.088;5.096;2023-05-27T12:55:18;20.80;99.90
65404;DHT22;52014;52.088;5.096;2023-05-27T12:57:45;20.80;99.90
65404;DHT22;52014;52.088;5.096;2023-05-27T13:00:11;20.60;99.90
65404;DHT22;52014;52.088;5.096;2023-05-27T13:02:37;20.40;99.90
65404;DHT22;52014;52.088;5.096;2023-05-27T13:05:03;20.60;99.90
65404;DHT22;52014;52.088;5.096;2023-05-27T13:07:28;20.60;99.90
65404;DHT22;52014;52.088;5.096;2023-05-27T13:09:54;20.60;99.90
65404;DHT22;52014;52.088;5.096;2023-05-27T13:12:21;20.70;99.90
65404;DHT22;52014;52.088;5.096;2023-05-27T13:14:46;20.80;99.90
65404;DHT22;52014;52.088;5.096;2023-05-27T13:17:12;20.70;99.90
65404;DHT22;52014;52.088;5.096;2023-05-27T13:19:38;20.70;99.90
65404;DHT22;52014;52.088;5.096;2023-05-27T13:22:03;20.80;99.90
65404;DHT22;52014;52.088;5.096;2023-05-27T13:24:29;20.60;99.90
65404;DHT22;52014;52.088;5.096;2023-05-27T13:26:54;20.60;99.90
65404;DHT22;52014;52.088;5.096;2023-05-27T13:29:20;20.60;99.90
65404;DHT22;52014;52.088;5.096;2023-05-27T13:31:45;20.70;99.90
65404;DHT22;52014;52.088;5.096;2023-05-27T13:34:11;20.80;99.90
65404;DHT22;52014;52.088;5.096;2023-05-27T13:36:36;20.90;99.90
65404;DHT22;52014;52.088;5.096;2023-05-27T13:39:02;20.80;99.90
65404;DHT22;52014;52.088;5.096;2023-05-27T13:41:27;20.80;99.90
65404;DHT22;52014;52.088;5.096;2023-05-27T13:43:53;20.80;99.90
65404;DHT22;52014;52.088;5.096;2023-05-27T13:46:18;20.80;99.90
65404;DHT22;52014;52.088;5.096;2023-05-27T13:48:43;20.80;99.90
65404;DHT22;52014;52.088;5.096;2023-05-27T13:51:09;20.70;99.90
65404;DHT22;52014;52.088;5.096;2023-05-27T13:53:34;20.70;99.90
65404;DHT22;52014;52.088;5.096;2023-05-27T13:56:00;20.60;99.90
65404;DHT22;52014;52.088;5.096;2023-05-27T13:58:25;20.60;99.90
65404;DHT22;52014;52.088;5.096;2023-05-27T14:00:51;20.60;99.90
65404;DHT22;52014;52.088;5.096;2023-05-27T14:03:16;20.70;99.90
65404;DHT22;52014;52.088;5.096;2023-05-27T14:05:42;20.70;99.90
65404;DHT22;52014;52.088;5.096;2023-05-27T14:08:07;20.70;99.90
65404;DHT22;52014;52.088;5.096;2023-05-27T14:10:33;20.70;99.90
65404;DHT22;52014;52.088;5.096;2023-05-27T14:12:59;20.70;99.90
65404;DHT22;52014;52.088;5.096;2023-05-27T14:15:26;20.80;99.90
65404;DHT22;52014;52.088;5.096;2023-05-27T14:17:53;20.80;99.90
65404;DHT22;52014;52.088;5.096;2023-05-27T14:20:19;20.80;99.90
65404;DHT22;52014;52.088;5.096;2023-05-27T14:22:44;20.90;99.90
65404;DHT22;52014;52.088;5.096;2023-05-27T14:25:10;20.80;99.90
65404;DHT22;52014;52.088;5.096;2023-05-27T14:27:35;20.80;99.90
65404;DHT22;52014;52.088;5.096;2023-05-27T14:30:01;20.90;99.90
65404;DHT22;52014;52.088;5.096;2023-05-27T14:32:26;20.80;99.90
65404;DHT22;52014;52.088;5.096;2023-05-27T14:34:52;20.70;99.90
65404;DHT22;52014;52.088;5.096;2023-05-27T14:37:17;20.70;99.90
65404;DHT22;52014;52.088;5.096;2023-05-27T14:39:43;20.80;99.90
65404;DHT22;52014;52.088;5.096;2023-05-27T14:42:08;20.90;99.90
65404;DHT22;52014;52.088;5.096;2023-05-27T14:44:34;20.90;99.90
65404;DHT22;52014;52.088;5.096;2023-05-27T14:47:01;20.90;99.90
65404;DHT22;52014;52.088;5.096;2023-05-27T14:49:26;20.90;99.90
65404;DHT22;52014;52.088;5.096;2023-05-27T14:51:52;20.80;99.90
65404;DHT22;52014;52.088;5.096;2023-05-27T14:54:17;20.90;99.90
65404;DHT22;52014;52.088;5.096;2023-05-27T14:56:43;21.00;99.90
65404;DHT22;52014;52.088;5.096;2023-05-27T14:59:09;21.00;99.90
65404;DHT22;52014;52.088;5.096;2023-05-27T15:01:34;21.00;99.90
65404;DHT22;52014;52.088;5.096;2023-05-27T15:04:00;21.00;99.90
65404;DHT22;52014;52.088;5.096;2023-05-27T15:06:25;21.10;99.90
65404;DHT22;52014;52.088;5.096;2023-05-27T15:08:51;21.20;99.90
65404;DHT22;52014;52.088;5.096;2023-05-27T15:11:16;21.10;99.90
65404;DHT22;52014;52.088;5.096;2023-05-27T15:13:42;21.00;99.90
65404;DHT22;52014;52.088;5.096;2023-05-27T15:16:07;21.00;99.90
65404;DHT22;52014;52.088;5.096;2023-05-27T15:18:33;20.90;99.90
65404;DHT22;52014;52.088;5.096;2023-05-27T15:20:58;20.90;99.90
65404;DHT22;52014;52.088;5.096;2023-05-27T15:23:24;20.90;99.90
65404;DHT22;52014;52.088;5.096;2023-05-27T15:25:49;20.90;99.90
65404;DHT22;52014;52.088;5.096;2023-05-27T15:28:15;21.00;99.90
65404;DHT22;52014;52.088;5.096;2023-05-27T15:30:40;21.10;99.90
65404;DHT22;52014;52.088;5.096;2023-05-27T15:33:06;21.20;99.90
65404;DHT22;52014;52.088;5.096;2023-05-27T15:35:31;21.10;99.90
65404;DHT22;52014;52.088;5.096;2023-05-27T15:37:57;21.10;99.90
65404;DHT22;52014;52.088;5.096;2023-05-27T15:40:23;21.10;99.90
65404;DHT22;52014;52.088;5.096;2023-05-27T15:42:48;21.10;99.90
65404;DHT22;52014;52.088;5.096;2023-05-27T15:45:14;21.00;99.90
65404;DHT22;52014;52.088;5.096;2023-05-27T15:47:40;21.00;99.90
65404;DHT22;52014;52.088;5.096;2023-05-27T15:50:05;20.90;99.90
65404;DHT22;52014;52.088;5.096;2023-05-27T15:52:31;21.00;99.90
65404;DHT22;52014;52.088;5.096;2023-05-27T15:54:56;21.00;99.90
65404;DHT22;52014;52.088;5.096;2023-05-27T15:57:22;21.00;99.90
65404;DHT22;52014;52.088;5.096;2023-05-27T15:59:48;20.90;99.90
65404;DHT22;52014;52.088;5.096;2023-05-27T16:02:15;20.90;99.90